Time;durP1;ratioP1;P1;durP2;ratioP2;P2;SDS_P1;SDS_P2;PMS_P1;PMS_P2;Temp;Humidity;BMP_temperature;BMP_pressure;BME280_temperature;BME280_humidity;BME280_pressure;Samples;Min_cycle;Max_cycle;Signal;HPM_P1;HPM_P2
2023/08/19 00:00:17;;;;;;;10.20;9.10;;;;;;;19.65;100.00;97590.35;110158;1241;68487;-68
2023/08/19 00:03:07;;;;;;;12.20;9.30;;;;;;;19.63;97.11;97591.83;110120;1241;59721;-66
2023/08/19 00:05:37;;;;;;;10.10;9.10;;;;;;;19.63;95.36;97590.37;110163;1245;59747;-67
2023/08/19 00:08:08;;;;;;;9.80;8.80;;;;;;;19.65;97.91;97593.70;110151;1244;71343;-68
2023/08/19 00:10:39;;;;;;;10.60;9.00;;;;;;;19.64;100.00;97590.73;110147;1244;69262;-66
2023/08/19 00:13:12;;;;;;;9.10;8.30;;;;;;;19.61;99.95;97588.32;110133;1244;69066;-67
2023/08/19 00:15:41;;;;;;;9.50;8.60;;;;;;;19.58;95.76;97591.95;110085;1245;60058;-67
2023/08/19 00:18:11;;;;;;;10.40;9.30;;;;;;;19.54;93.12;97590.59;110161;1244;59671;-67
2023/08/19 00:20:42;;;;;;;10.20;9.20;;;;;;;19.51;92.56;97589.16;110090;1245;70497;-68
2023/08/19 00:23:16;;;;;;;10.60;9.60;;;;;;;19.49;98.27;97587.07;110104;1245;69419;-68
2023/08/19 00:25:45;;;;;;;10.40;9.30;;;;;;;19.49;100.00;97590.48;110064;1245;69367;-67
2023/08/19 00:28:15;;;;;;;10.00;9.00;;;;;;;19.47;95.33;97588.88;110117;1243;59693;-67
2023/08/19 00:30:46;;;;;;;10.30;9.30;;;;;;;19.46;94.74;97587.62;110077;1245;60142;-66
2023/08/19 00:33:19;;;;;;;10.10;9.10;;;;;;;19.44;97.03;97591.11;110125;1241;70926;-68
2023/08/19 00:35:53;;;;;;;9.20;8.30;;;;;;;19.42;97.10;97589.41;110109;1245;69288;-68
2023/08/19 00:38:22;;;;;;;10.90;9.80;;;;;;;19.39;92.92;97587.65;110109;1241;68706;-67
2023/08/19 00:40:52;;;;;;;;;;;;;;;19.34;93.99;97588.11;110191;1243;59719;-68
2023/08/19 00:43:24;;;;;;;10.70;9.60;;;;;;;19.27;97.74;97587.23;110070;1245;59676;-67
2023/08/19 00:45:54;;;;;;;10.20;9.20;;;;;;;19.20;99.47;97580.61;110121;1243;71412;-67
2023/08/19 00:48:28;;;;;;;11.20;10.10;;;;;;;19.14;99.87;97581.30;110122;1245;68939;-67
2023/08/19 00:51:02;;;;;;;10.70;9.60;;;;;;;19.07;100.00;97580.91;110162;1241;69091;-67
2023/08/19 00:53:34;;;;;;;10.90;9.50;;;;;;;19.04;99.50;97581.16;110140;1241;59668;-67
2023/08/19 00:56:03;;;;;;;9.50;8.60;;;;;;;19.01;100.00;97575.89;110056;1247;59735;-67
2023/08/19 00:58:33;;;;;;;;;;;;;;;18.98;100.00;97580.42;110150;1246;71397;-67
2023/08/19 01:01:04;;;;;;;10.50;9.60;;;;;;;18.94;100.00;97579.80;110113;1245;68970;-68
2023/08/19 01:03:34;;;;;;;;;;;;;;;18.93;100.00;97581.20;110144;1241;69122;-68
2023/08/19 01:06:12;;;;;;;;;;;;;;;18.92;100.00;97582.45;110119;1243;59684;-67
2023/08/19 01:08:47;;;;;;;;;;;;;;;18.92;100.00;97585.86;110110;1245;59693;-66
2023/08/19 01:11:36;;;;;;;10.60;9.50;;;;;;;18.92;99.99;97585.00;110157;1245;70798;-65
2023/08/19 01:14:15;;;;;;;;;;;;;;;18.95;97.30;97581.68;110098;1245;69103;-68
2023/08/19 01:16:50;;;;;;;13.60;11.70;;;;;;;18.96;96.90;97580.34;110134;1245;69118;-67
2023/08/19 01:19:32;;;;;;;13.00;11.70;;;;;;;18.97;97.79;97581.37;110112;1244;59749;-68
2023/08/19 01:22:05;;;;;;;13.50;12.20;;;;;;;18.98;98.24;97582.00;110169;1242;59728;-68
2023/08/19 01:24:38;;;;;;;12.20;11.00;;;;;;;18.97;97.93;97578.39;110113;1245;70419;-67
2023/08/19 01:27:25;;;;;;;13.00;11.70;;;;;;;18.95;98.14;97575.96;110113;1245;70082;-67
2023/08/19 01:30:00;;;;;;;12.00;10.80;;;;;;;18.92;99.25;97574.76;110100;1241;68579;-67
2023/08/19 01:32:32;;;;;;;12.10;10.90;;;;;;;18.88;99.79;97571.94;110126;1241;59758;-68
2023/08/19 01:35:04;;;;;;;11.10;10.00;;;;;;;18.84;100.00;97569.86;110160;1245;59701;-68
2023/08/19 01:37:40;;;;;;;11.30;10.20;;;;;;;18.81;100.00;97565.91;110115;1245;71618;-68
2023/08/19 01:40:14;;;;;;;11.70;10.50;;;;;;;18.78;100.00;97568.35;110178;1246;69275;-67
2023/08/19 01:42:47;;;;;;;12.70;11.50;;;;;;;18.77;100.00;97567.61;110143;1243;69354;-68
2023/08/19 01:45:18;;;;;;;13.50;12.10;;;;;;;18.74;100.00;97568.08;110205;1245;59703;-68
2023/08/19 01:47:53;;;;;;;12.10;11.00;;;;;;;18.72;100.00;97567.95;110137;1245;59699;-67
2023/08/19 01:50:25;;;;;;;11.70;10.60;;;;;;;18.72;100.00;97565.27;110149;1248;70500;-68
2023/08/19 01:52:56;;;;;;;11.70;10.50;;;;;;;18.75;100.00;97563.80;110169;1244;69767;-68
2023/08/19 01:55:27;;;;;;;11.20;9.90;;;;;;;18.76;100.00;97564.20;110157;1241;69081;-68
2023/08/19 01:58:00;;;;;;;11.10;10.10;;;;;;;18.76;100.00;97567.15;110158;1241;60208;-67
2023/08/19 02:00:30;;;;;;;10.30;9.40;;;;;;;18.77;100.00;97564.28;110163;1243;59728;-67
2023/08/19 02:03:00;;;;;;;10.30;9.30;;;;;;;18.78;100.00;97569.59;110119;1241;71685;-68
2023/08/19 02:05:30;;;;;;;9.70;8.70;;;;;;;18.81;100.00;97571.41;110134;1241;69233;-67
2023/08/19 02:07:59;;;;;;;9.80;8.90;;;;;;;18.84;100.00;97573.11;110129;1241;68503;-69
2023/08/19 02:10:32;;;;;;;10.40;9.40;;;;;;;18.85;100.00;97571.95;110106;1245;59732;-68
2023/08/19 02:13:03;;;;;;;10.40;9.50;;;;;;;18.87;100.00;97572.79;110193;1242;59601;-69
2023/08/19 02:15:35;;;;;;;10.90;9.80;;;;;;;18.89;100.00;97576.11;110079;1241;70477;-67
2023/08/19 02:18:06;;;;;;;10.00;9.10;;;;;;;18.90;100.00;97571.40;110122;1245;69182;-67
2023/08/19 02:20:36;;;;;;;11.00;9.90;;;;;;;18.91;100.00;97572.52;109977;1244;68453;-68
2023/08/19 02:23:07;;;;;;;12.60;11.30;;;;;;;18.90;99.98;97568.27;110097;1241;59789;-67
2023/08/19 02:25:37;;;;;;;12.40;11.20;;;;;;;18.87;99.87;97567.49;110144;1241;59718;-67
2023/08/19 02:28:09;;;;;;;10.40;9.30;;;;;;;18.83;99.97;97570.39;110125;1246;71386;-69
2023/08/19 02:30:41;;;;;;;10.30;9.40;;;;;;;18.80;100.00;97574.73;110133;1243;69564;-69
2023/08/19 02:33:11;;;;;;;10.60;9.60;;;;;;;18.76;100.00;97574.42;110100;1245;69656;-67
2023/08/19 02:35:42;;;;;;;10.20;9.30;;;;;;;18.73;100.00;97569.65;110136;1241;59699;-67
2023/08/19 02:38:12;;;;;;;10.40;9.40;;;;;;;18.71;100.00;97569.61;110133;1243;59634;-68
2023/08/19 02:40:51;;;;;;;10.30;9.40;;;;;;;18.69;100.00;97571.08;110144;1246;71423;-68
2023/08/19 02:43:21;;;;;;;10.00;9.00;;;;;;;18.69;100.00;97573.17;110166;1247;69203;-66
2023/08/19 02:45:57;;;;;;;11.40;10.30;;;;;;;18.69;100.00;97575.34;110157;1245;68384;-69
2023/08/19 02:48:27;;;;;;;12.10;10.90;;;;;;;18.64;100.00;97575.83;110107;1246;59682;-67
2023/08/19 02:50:57;;;;;;;12.60;11.40;;;;;;;18.60;100.00;97577.67;110149;1252;59694;-67
2023/08/19 02:53:29;;;;;;;11.40;10.20;;;;;;;18.56;100.00;97576.13;110055;1245;71457;-68
2023/08/19 02:56:00;;;;;;;10.30;9.30;;;;;;;18.55;100.00;97575.16;110100;1245;68359;-68
2023/08/19 02:58:30;;;;;;;10.00;9.00;;;;;;;18.54;100.00;97577.88;110111;1246;69121;-68
2023/08/19 03:01:02;;;;;;;9.30;8.50;;;;;;;18.54;100.00;97576.98;110114;1245;59755;-66
2023/08/19 03:03:33;;;;;;;11.10;10.00;;;;;;;18.54;100.00;97574.04;110145;1246;59807;-68
2023/08/19 03:06:03;;;;;;;10.70;9.70;;;;;;;18.51;100.00;97577.83;110171;1243;71956;-65
2023/08/19 03:08:34;;;;;;;10.50;9.50;;;;;;;18.49;100.00;97578.23;110137;1243;69828;-68
2023/08/19 03:11:05;;;;;;;10.00;9.00;;;;;;;18.48;100.00;97579.62;110127;1246;68517;-68
2023/08/19 03:13:35;;;;;;;9.70;8.80;;;;;;;18.47;100.00;97578.07;110055;1247;59715;-67
2023/08/19 03:16:06;;;;;;;11.50;10.40;;;;;;;18.47;100.00;97577.77;109882;1246;59677;-68
2023/08/19 03:18:37;;;;;;;10.50;9.50;;;;;;;18.45;100.00;97581.88;110101;1245;71656;-67
2023/08/19 03:21:07;;;;;;;11.20;9.60;;;;;;;18.43;100.00;97584.65;110111;1246;69209;-67
2023/08/19 03:23:40;;;;;;;9.50;8.70;;;;;;;18.43;100.00;97586.60;110211;1245;69359;-67
2023/08/19 03:26:12;;;;;;;11.40;10.30;;;;;;;18.44;100.00;97590.61;110186;1241;59684;-67
2023/08/19 03:28:42;;;;;;;11.60;10.50;;;;;;;18.44;100.00;97591.48;110154;1247;59636;-67
2023/08/19 03:31:13;;;;;;;9.40;8.40;;;;;;;18.43;100.00;97591.39;110118;1245;71246;-68
2023/08/19 03:33:42;;;;;;;10.00;9.00;;;;;;;18.40;100.00;97586.42;110129;1245;70214;-67
2023/08/19 03:36:13;;;;;;;9.90;9.00;;;;;;;18.37;100.00;97589.39;110045;1247;69318;-68
2023/08/19 03:38:44;;;;;;;10.90;9.90;;;;;;;18.33;100.00;97589.20;110044;1246;59751;-68
2023/08/19 03:41:14;;;;;;;11.00;10.00;;;;;;;18.27;100.00;97587.34;110057;1246;60048;-67
2023/08/19 03:43:44;;;;;;;10.60;9.50;;;;;;;18.25;100.00;97589.34;110150;1241;70715;-67
2023/08/19 03:46:17;;;;;;;10.30;9.30;;;;;;;18.23;100.00;97589.13;110123;1245;69571;-68
2023/08/19 03:48:47;;;;;;;10.60;9.60;;;;;;;18.25;100.00;97589.17;110146;1245;69152;-68
2023/08/19 03:51:17;;;;;;;;;;;;;;;18.26;100.00;97590.48;110059;1247;59699;-67
2023/08/19 03:53:48;;;;;;;11.40;10.20;;;;;;;18.27;100.00;97594.55;110118;1243;59793;-67
2023/08/19 03:56:18;;;;;;;;;;;;;;;18.26;100.00;97597.66;110121;1246;71364;-69
2023/08/19 03:58:49;;;;;;;10.20;9.00;;;;;;;18.24;100.00;97595.45;110052;1250;69596;-68
2023/08/19 04:01:20;;;;;;;9.90;8.70;;;;;;;18.24;100.00;97598.46;110154;1241;69257;-68
2023/08/19 04:03:50;;;;;;;10.70;9.70;;;;;;;18.24;100.00;97595.58;110131;1241;59743;-68
2023/08/19 04:06:19;;;;;;;10.00;9.10;;;;;;;18.26;100.00;97601.20;110170;1241;59651;-68
2023/08/19 04:08:50;;;;;;;10.70;9.60;;;;;;;18.30;100.00;97597.98;110242;1245;71182;-66
2023/08/19 04:11:19;;;;;;;12.80;10.20;;;;;;;18.36;100.00;97595.70;110178;1245;69203;-68
2023/08/19 04:13:50;;;;;;;9.90;8.90;;;;;;;18.39;100.00;97597.77;110260;1244;69112;-68
2023/08/19 04:16:19;;;;;;;;;;;;;;;18.46;100.00;97598.34;110014;1241;59766;-67
2023/08/19 04:18:50;;;;;;;10.70;9.70;;;;;;;18.52;100.00;97598.24;110104;1245;59670;-68
2023/08/19 04:21:20;;;;;;;10.10;9.10;;;;;;;18.59;100.00;97598.61;110118;1244;70717;-68
2023/08/19 04:23:51;;;;;;;10.20;9.10;;;;;;;18.68;100.00;97599.42;110156;1252;69192;-68
2023/08/19 04:26:21;;;;;;;10.40;9.40;;;;;;;18.74;100.00;97599.52;110112;1246;67407;-68
2023/08/19 04:28:52;;;;;;;11.70;10.60;;;;;;;18.81;100.00;97604.27;110019;1246;59695;-67
2023/08/19 04:31:22;;;;;;;10.40;9.50;;;;;;;18.83;100.00;97602.40;109897;1242;59719;-69
2023/08/19 04:33:55;;;;;;;10.30;9.30;;;;;;;18.90;100.00;97599.69;110081;1244;71202;-68
2023/08/19 04:36:25;;;;;;;9.80;8.90;;;;;;;18.97;100.00;97602.73;110121;1246;69295;-69
2023/08/19 04:38:54;;;;;;;9.90;9.00;;;;;;;19.04;100.00;97602.23;110087;1247;68320;-67
2023/08/19 04:41:24;;;;;;;9.20;8.40;;;;;;;19.11;100.00;97602.18;110157;1252;59689;-68
2023/08/19 04:43:53;;;;;;;9.80;8.90;;;;;;;19.19;100.00;97602.41;110194;1245;59663;-66
2023/08/19 04:46:25;;;;;;;9.80;9.00;;;;;;;19.31;100.00;97600.25;110102;1245;70160;-67
2023/08/19 04:48:54;;;;;;;10.10;9.20;;;;;;;19.46;100.00;97601.68;109891;1242;69693;-67
2023/08/19 04:51:24;;;;;;;10.30;9.30;;;;;;;19.55;100.00;97604.65;110112;1244;68575;-69
2023/08/19 04:53:53;;;;;;;10.70;9.80;;;;;;;19.65;100.00;97598.34;110137;1244;59739;-67
2023/08/19 04:56:24;;;;;;;10.70;9.70;;;;;;;19.77;100.00;97595.89;110131;1241;59699;-68
2023/08/19 04:58:55;;;;;;;13.70;12.30;;;;;;;19.89;100.00;97601.88;110148;1245;71963;-68
2023/08/19 05:01:29;;;;;;;15.50;13.90;;;;;;;19.98;100.00;97614.92;109856;1241;68889;-67
2023/08/19 05:03:59;;;;;;;17.50;15.70;;;;;;;20.07;100.00;97617.12;110093;1243;69871;-70
2023/08/19 05:06:30;;;;;;;13.80;12.60;;;;;;;20.09;100.00;97617.59;110131;1243;59690;-68
2023/08/19 05:08:59;;;;;;;14.40;12.80;;;;;;;20.33;100.00;97622.73;110092;1242;59649;-68
2023/08/19 05:11:30;;;;;;;14.50;12.50;;;;;;;20.68;100.00;97625.42;109724;1248;71966;-67
2023/08/19 05:14:05;;;;;;;15.90;14.30;;;;;;;21.05;100.00;97631.98;110057;1244;69589;-67
2023/08/19 05:16:34;;;;;;;14.90;13.50;;;;;;;21.40;99.12;97632.08;109855;1245;68551;-68
2023/08/19 05:19:21;;;;;;;15.10;13.60;;;;;;;21.74;95.47;97628.73;109783;1245;59700;-68
2023/08/19 05:21:50;;;;;;;14.00;12.70;;;;;;;22.26;93.67;97624.83;110141;1245;59672;-68
2023/08/19 05:24:20;;;;;;;12.60;11.50;;;;;;;22.74;93.67;97622.36;110064;1245;70834;-67
2023/08/19 05:26:51;;;;;;;14.30;12.90;;;;;;;23.14;90.97;97630.55;110118;1245;67775;-67
2023/08/19 05:29:23;;;;;;;12.00;10.90;;;;;;;23.51;92.38;97634.20;110149;1241;69708;-68
2023/08/19 05:31:53;;;;;;;12.30;11.20;;;;;;;23.78;85.02;97631.11;110163;1242;59741;-67
2023/08/19 05:34:22;;;;;;;12.10;11.00;;;;;;;24.01;83.98;97625.19;110108;1246;59700;-69
2023/08/19 05:36:53;;;;;;;10.70;9.80;;;;;;;24.30;86.11;97620.70;110104;1243;70712;-67
2023/08/19 05:39:22;;;;;;;10.40;9.40;;;;;;;24.54;82.07;97617.50;110112;1245;69249;-67
2023/08/19 05:41:51;;;;;;;12.80;11.60;;;;;;;24.64;83.71;97622.92;110142;1245;69405;-67
2023/08/19 05:44:20;;;;;;;;;;;;;;;24.76;85.75;97628.97;110131;1243;59735;-67
2023/08/19 05:46:51;;;;;;;12.70;11.60;;;;;;;24.63;80.48;97624.93;110137;1242;59740;-67
2023/08/19 05:49:19;;;;;;;12.70;11.50;;;;;;;24.65;84.08;97629.23;110152;1245;71902;-67
2023/08/19 05:51:48;;;;;;;12.70;11.50;;;;;;;24.68;84.12;97636.23;110137;1242;69275;-67
2023/08/19 05:54:18;;;;;;;12.50;11.40;;;;;;;24.71;82.42;97632.59;110100;1244;68531;-66
2023/08/19 05:56:47;;;;;;;13.30;12.10;;;;;;;24.91;82.18;97634.02;110053;1246;60052;-66
2023/08/19 05:59:18;;;;;;;12.20;11.10;;;;;;;25.07;79.90;97636.13;110081;1245;60048;-68
2023/08/19 06:01:47;;;;;;;12.40;11.30;;;;;;;25.36;79.49;97631.30;110043;1245;71353;-66
2023/08/19 06:04:17;;;;;;;11.20;10.10;;;;;;;25.72;76.41;97633.45;110067;1246;69069;-69
2023/08/19 06:06:46;;;;;;;10.20;9.20;;;;;;;26.18;78.50;97631.33;110061;1246;69898;-68
2023/08/19 06:09:15;;;;;;;;;;;;;;;26.58;70.36;97626.40;110062;1244;59750;-68
2023/08/19 06:11:48;;;;;;;;;;;;;;;26.90;70.38;97626.48;110118;1242;59631;-71
2023/08/19 06:14:17;;;;;;;9.20;8.50;;;;;;;27.21;68.24;97628.55;110035;1245;71397;-70
2023/08/19 06:16:47;;;;;;;9.30;8.40;;;;;;;27.56;66.52;97628.73;110109;1245;69828;-70
2023/08/19 06:19:15;;;;;;;;;;;;;;;27.95;68.92;97632.70;110092;1245;69292;-70
2023/08/19 06:21:44;;;;;;;;;;;;;;;28.19;63.05;97634.11;110083;1245;59754;-68
2023/08/19 06:24:13;;;;;;;9.00;8.30;;;;;;;28.39;65.66;97633.35;110132;1246;59621;-72
2023/08/19 06:26:42;;;;;;;8.80;8.10;;;;;;;28.69;65.86;97638.23;110091;1245;71962;-71
2023/08/19 06:29:11;;;;;;;8.10;7.40;;;;;;;28.95;63.01;97639.30;110088;1246;69852;-71
2023/08/19 06:31:41;;;;;;;9.10;8.30;;;;;;;29.06;58.86;97640.55;110122;1244;70074;-71
2023/08/19 06:34:10;;;;;;;8.50;7.80;;;;;;;29.17;58.99;97640.10;110115;1246;59731;-69
2023/08/19 06:36:42;;;;;;;8.30;7.60;;;;;;;29.36;58.46;97647.39;110108;1244;59767;-70
2023/08/19 06:39:22;;;;;;;7.90;7.20;;;;;;;29.66;58.61;97647.29;110103;1244;72014;-70
2023/08/19 06:42:00;;;;;;;7.60;7.00;;;;;;;29.91;56.65;97650.08;110138;1244;69821;-70
2023/08/19 06:44:30;;;;;;;9.20;8.10;;;;;;;30.21;56.98;97652.17;110067;1245;68520;-69
2023/08/19 06:47:02;;;;;;;8.40;7.60;;;;;;;30.26;54.83;97653.15;110057;1245;59684;-69
2023/08/19 06:49:32;;;;;;;8.20;7.40;;;;;;;30.42;57.06;97656.02;110071;1245;59649;-71
2023/08/19 06:52:02;;;;;;;7.80;7.00;;;;;;;30.65;55.75;97651.98;110072;1244;71261;-70
2023/08/19 06:54:31;;;;;;;7.30;6.70;;;;;;;30.86;55.10;97652.09;110060;1242;69545;-69
2023/08/19 06:57:09;;;;;;;7.60;6.90;;;;;;;31.04;52.98;97651.56;110080;1244;69243;-69
2023/08/19 06:59:39;;;;;;;;;;;;;;;31.19;51.98;97649.34;110063;1245;59745;-70
2023/08/19 07:02:11;;;;;;;7.10;6.50;;;;;;;31.28;51.98;97650.73;110083;1245;59736;-70
2023/08/19 07:04:45;;;;;;;7.80;7.10;;;;;;;31.46;51.00;97654.89;110080;1244;71460;-70
2023/08/19 07:07:21;;;;;;;7.80;7.00;;;;;;;31.62;50.90;97659.05;110054;1245;68199;-70
2023/08/19 07:09:52;;;;;;;7.50;6.70;;;;;;;31.79;49.71;97661.75;110088;1244;68150;-69
2023/08/19 07:12:21;;;;;;;6.80;6.20;;;;;;;31.86;48.47;97660.37;110073;1245;59753;-70
2023/08/19 07:14:50;;;;;;;7.20;6.50;;;;;;;31.83;47.25;97665.58;110123;1244;59626;-70
2023/08/19 07:17:22;;;;;;;7.10;6.40;;;;;;;31.92;45.91;97662.48;110085;1245;70615;-69
2023/08/19 07:19:53;;;;;;;6.80;6.20;;;;;;;32.06;47.77;97664.83;109640;1244;572194;-69
2023/08/19 07:22:25;;;;;;;7.20;6.70;;;;;;;31.96;46.07;97662.64;110049;1241;68532;-69
2023/08/19 07:24:54;;;;;;;6.20;5.70;;;;;;;32.11;46.33;97662.27;110084;1245;59716;-68
2023/08/19 07:27:26;;;;;;;7.10;6.50;;;;;;;32.24;45.37;97659.63;110107;1245;59740;-69
2023/08/19 07:29:56;;;;;;;7.50;6.80;;;;;;;32.19;44.25;97662.07;110099;1245;70470;-68
2023/08/19 07:32:27;;;;;;;6.40;5.90;;;;;;;32.24;45.07;97664.86;110072;1244;69366;-69
2023/08/19 07:34:57;;;;;;;6.00;5.40;;;;;;;32.29;43.72;97668.20;109934;1244;68404;-70
2023/08/19 07:37:26;;;;;;;6.00;5.40;;;;;;;32.37;43.88;97671.17;110076;1244;59715;-69
2023/08/19 07:39:56;;;;;;;7.30;5.80;;;;;;;32.60;43.60;97674.46;110072;1244;59697;-69
2023/08/19 07:42:27;;;;;;;6.50;5.90;;;;;;;32.64;42.84;97672.58;110094;1245;71445;-69
2023/08/19 07:44:56;;;;;;;6.40;5.80;;;;;;;32.76;42.43;97670.56;110096;1245;69194;-69
2023/08/19 07:47:25;;;;;;;6.50;5.90;;;;;;;32.77;42.13;97670.84;110033;1244;69288;-69
2023/08/19 07:49:54;;;;;;;5.70;5.20;;;;;;;32.79;42.14;97666.71;110082;1244;59751;-68
2023/08/19 07:52:23;;;;;;;;;;;;;;;32.88;42.18;97669.19;110115;1246;59684;-70
2023/08/19 07:54:53;;;;;;;6.20;5.70;;;;;;;33.13;42.57;97672.75;110074;1243;71965;-69
2023/08/19 07:57:21;;;;;;;6.50;5.90;;;;;;;33.33;41.65;97670.52;109789;1245;69256;-68
2023/08/19 07:59:50;;;;;;;6.50;5.90;;;;;;;33.31;41.49;97672.88;110155;1241;69471;-70
2023/08/19 08:02:20;;;;;;;6.40;5.80;;;;;;;33.30;41.69;97669.67;110094;1248;59703;-70
2023/08/19 08:04:49;;;;;;;6.10;4.80;;;;;;;33.24;40.68;97669.32;110133;1244;59633;-69
2023/08/19 08:07:19;;;;;;;6.40;5.80;;;;;;;33.45;41.53;97668.73;110111;1241;71662;-70
2023/08/19 08:09:49;;;;;;;6.30;5.80;;;;;;;33.68;41.10;97670.75;110115;1241;69226;-70
2023/08/19 08:12:18;;;;;;;6.20;5.60;;;;;;;33.93;40.92;97668.44;110111;1245;69279;-70
2023/08/19 08:14:47;;;;;;;6.20;5.70;;;;;;;34.05;40.05;97668.48;110096;1243;59684;-70
2023/08/19 08:17:16;;;;;;;6.90;6.30;;;;;;;34.05;40.34;97669.23;110152;1243;59699;-70
2023/08/19 08:19:46;;;;;;;6.60;5.90;;;;;;;34.12;40.49;97668.16;110127;1244;71376;-69
2023/08/19 08:22:15;;;;;;;7.20;6.50;;;;;;;34.20;40.07;97672.95;110114;1245;69587;-70
2023/08/19 08:24:45;;;;;;;7.10;6.40;;;;;;;34.42;39.01;97672.02;110106;1244;69873;-70
2023/08/19 08:27:15;;;;;;;6.30;5.70;;;;;;;34.51;38.81;97668.42;110110;1243;59763;-70
2023/08/19 08:29:44;;;;;;;5.30;4.80;;;;;;;34.54;38.87;97670.23;110103;1241;59704;-70
2023/08/19 08:32:14;;;;;;;6.50;5.20;;;;;;;34.75;39.12;97668.92;110111;1241;70626;-68
2023/08/19 08:34:44;;;;;;;5.60;5.10;;;;;;;34.98;38.65;97667.27;110090;1244;69834;-70
2023/08/19 08:37:13;;;;;;;6.10;5.50;;;;;;;34.89;38.29;97671.46;110147;1243;69700;-69
2023/08/19 08:39:43;;;;;;;5.80;5.30;;;;;;;34.83;38.07;97668.77;110112;1245;59747;-69
2023/08/19 08:42:12;;;;;;;6.10;5.50;;;;;;;34.85;38.18;97664.88;110113;1241;59712;-70
2023/08/19 08:44:44;;;;;;;5.40;4.90;;;;;;;34.89;37.52;97663.81;110117;1241;71988;-70
2023/08/19 08:47:14;;;;;;;5.60;5.10;;;;;;;34.90;37.53;97663.27;110172;1244;69236;-70
2023/08/19 08:49:45;;;;;;;5.70;5.20;;;;;;;35.31;37.76;97660.16;110171;1244;69890;-71
2023/08/19 08:52:14;;;;;;;5.60;5.20;;;;;;;35.64;36.93;97659.52;110150;1244;59715;-71
2023/08/19 08:54:45;;;;;;;6.60;5.10;;;;;;;35.74;35.96;97660.52;110212;1241;59627;-69
2023/08/19 08:57:16;;;;;;;6.10;5.50;;;;;;;35.81;35.99;97658.04;110175;1245;71478;-69
2023/08/19 08:59:46;;;;;;;5.40;4.90;;;;;;;35.86;35.96;97660.76;110223;1244;69112;-69
2023/08/19 09:02:17;;;;;;;5.40;4.90;;;;;;;36.18;35.89;97659.81;110150;1244;69339;-69
2023/08/19 09:04:47;;;;;;;5.30;4.80;;;;;;;36.08;34.65;97658.81;110110;1244;59750;-70
2023/08/19 09:07:25;;;;;;;5.70;5.20;;;;;;;36.41;35.11;97654.23;110115;1243;59693;-70
2023/08/19 09:09:58;;;;;;;6.10;5.50;;;;;;;36.42;34.30;97656.61;110109;1241;71972;-69
2023/08/19 09:12:31;;;;;;;5.60;5.10;;;;;;;36.24;33.60;97655.94;110106;1244;68557;-69
2023/08/19 09:15:04;;;;;;;6.60;5.60;;;;;;;36.51;34.54;97653.10;110098;1245;69276;-70
2023/08/19 09:17:33;;;;;;;6.00;5.40;;;;;;;36.88;34.32;97653.66;110080;1244;59726;-70
2023/08/19 09:20:06;;;;;;;5.70;5.30;;;;;;;37.09;34.25;97650.86;110097;1241;59743;-70
2023/08/19 09:22:38;;;;;;;4.60;4.20;;;;;;;37.43;33.97;97648.64;110135;1241;71366;-70
2023/08/19 09:25:07;;;;;;;5.30;4.80;;;;;;;37.65;32.79;97647.61;110143;1241;70091;-70
2023/08/19 09:27:36;;;;;;;5.50;5.00;;;;;;;38.02;33.22;97643.27;110131;1245;68339;-69
2023/08/19 09:30:06;;;;;;;5.50;5.10;;;;;;;38.13;33.17;97643.90;110123;1244;59753;-68
2023/08/19 09:32:36;;;;;;;6.10;5.50;;;;;;;38.36;32.30;97643.95;110174;1245;60086;-69
2023/08/19 09:35:14;;;;;;;6.40;5.80;;;;;;;38.62;31.99;97638.52;110107;1244;70809;-70
2023/08/19 09:37:44;;;;;;;5.90;5.40;;;;;;;38.44;30.53;97639.92;110114;1241;69861;-70
2023/08/19 09:40:21;;;;;;;6.40;5.50;;;;;;;38.21;31.27;97635.66;110130;1243;69834;-70
2023/08/19 09:42:49;;;;;;;6.20;5.60;;;;;;;38.20;31.96;97641.52;110170;1241;59715;-70
2023/08/19 09:45:20;;;;;;;5.40;4.90;;;;;;;38.47;31.38;97638.41;110076;1245;59715;-70
2023/08/19 09:47:50;;;;;;;5.70;5.10;;;;;;;38.49;31.67;97638.40;110206;1242;72037;-69
2023/08/19 09:50:23;;;;;;;6.00;5.50;;;;;;;38.72;31.40;97637.92;110106;1241;69751;-70
2023/08/19 09:52:59;;;;;;;4.60;4.20;;;;;;;38.66;29.81;97640.16;110138;1244;69525;-70
2023/08/19 09:55:32;;;;;;;6.30;5.80;;;;;;;38.81;30.51;97640.20;110182;1244;59692;-69
2023/08/19 09:58:00;;;;;;;5.70;5.00;;;;;;;38.45;29.61;97638.70;110108;1243;59691;-69
2023/08/19 10:00:29;;;;;;;4.80;4.40;;;;;;;38.26;30.58;97638.36;110172;1241;71898;-69
2023/08/19 10:02:59;;;;;;;6.30;5.10;;;;;;;38.63;30.09;97632.05;110153;1243;68547;-70
2023/08/19 10:05:34;;;;;;;5.70;4.70;;;;;;;38.72;30.40;97632.04;110151;1244;68493;-70
2023/08/19 10:08:07;;;;;;;5.10;4.60;;;;;;;38.76;30.88;97631.34;110108;1241;59708;-68
2023/08/19 10:10:41;;;;;;;5.50;5.00;;;;;;;38.88;30.43;97637.83;110203;1242;59641;-69
2023/08/19 10:13:14;;;;;;;7.20;4.80;;;;;;;38.78;30.35;97637.50;110217;1244;71252;-70
2023/08/19 10:15:44;;;;;;;5.80;4.80;;;;;;;38.77;29.16;97631.94;110133;1241;68634;-69
2023/08/19 10:18:19;;;;;;;4.90;4.50;;;;;;;38.63;30.00;97630.42;110171;1243;70033;-70
2023/08/19 10:20:55;;;;;;;4.80;4.10;;;;;;;38.76;30.36;97630.63;110086;1244;59689;-69
2023/08/19 10:23:27;;;;;;;7.60;5.50;;;;;;;39.09;30.23;97624.00;110145;1244;59741;-70
2023/08/19 10:25:56;;;;;;;4.70;4.30;;;;;;;39.30;30.03;97626.52;110145;1244;70636;-70
2023/08/19 10:28:30;;;;;;;4.60;4.20;;;;;;;39.43;29.74;97624.49;110153;1245;69832;-70
2023/08/19 10:31:09;;;;;;;5.20;4.50;;;;;;;39.63;29.42;97621.67;110164;1244;69097;-69
2023/08/19 10:33:47;;;;;;;4.50;4.10;;;;;;;39.54;29.62;97623.02;110096;1244;59695;-70
2023/08/19 10:36:17;;;;;;;4.20;3.80;;;;;;;39.33;30.07;97621.77;110268;1242;60106;-69
2023/08/19 10:38:51;;;;;;;4.90;4.50;;;;;;;39.92;29.81;97620.23;110161;1241;71955;-70
2023/08/19 10:41:30;;;;;;;5.60;4.70;;;;;;;40.16;27.64;97618.60;110179;1241;68783;-70
2023/08/19 10:43:59;;;;;;;5.10;4.10;;;;;;;40.40;26.41;97614.73;110232;1244;69850;-69
2023/08/19 10:46:33;;;;;;;6.50;4.80;;;;;;;39.92;26.44;97615.52;110280;1243;59741;-69
2023/08/19 10:49:04;;;;;;;5.10;4.60;;;;;;;39.52;27.45;97618.40;110220;1241;60078;-70
2023/08/19 10:51:57;;;;;;;4.60;4.00;;;;;;;39.37;27.56;97616.85;110159;1243;71971;-69
2023/08/19 10:54:40;;;;;;;4.20;3.80;;;;;;;38.82;27.76;97613.02;110095;1241;68676;-70
2023/08/19 10:57:13;;;;;;;5.00;4.50;;;;;;;38.20;29.08;97612.04;110123;1243;68351;-69
2023/08/19 10:59:44;;;;;;;5.00;4.50;;;;;;;38.31;28.31;97613.37;110179;1244;59704;-70
2023/08/19 11:02:14;;;;;;;4.90;4.40;;;;;;;37.67;29.49;97608.38;110138;1241;59691;-70
2023/08/19 11:04:46;;;;;;;6.10;5.50;;;;;;;37.42;29.86;97610.42;110140;1244;70527;-69
2023/08/19 11:07:16;;;;;;;6.20;4.50;;;;;;;37.37;29.78;97610.27;110072;1244;68452;-69
2023/08/19 11:09:47;;;;;;;4.50;4.10;;;;;;;37.49;29.68;97609.52;110117;1243;69907;-69
2023/08/19 11:12:21;;;;;;;4.80;4.40;;;;;;;37.66;30.05;97606.27;110209;1243;59743;-69
2023/08/19 11:14:52;;;;;;;4.50;4.10;;;;;;;38.39;30.51;97606.25;110178;1241;59741;-69
2023/08/19 11:17:30;;;;;;;5.90;5.40;;;;;;;39.01;29.62;97602.71;110235;1243;71976;-69
2023/08/19 11:20:10;;;;;;;5.70;5.20;;;;;;;39.26;28.98;97603.59;110199;1244;69229;-69
2023/08/19 11:22:42;;;;;;;5.30;4.80;;;;;;;39.37;27.88;97606.91;110098;1244;69776;-68
2023/08/19 11:25:12;;;;;;;5.40;4.90;;;;;;;38.92;28.01;97604.79;110089;1244;59738;-69
2023/08/19 11:27:42;;;;;;;5.40;4.10;;;;;;;38.63;28.66;97605.00;110125;1244;59728;-68
2023/08/19 11:30:18;;;;;;;3.70;3.40;;;;;;;38.53;28.10;97603.52;110095;1244;71298;-69
2023/08/19 11:32:47;;;;;;;4.40;4.00;;;;;;;38.92;28.69;97598.66;109813;1245;69248;-69
2023/08/19 11:35:17;;;;;;;4.60;4.20;;;;;;;39.00;28.25;97594.44;110095;1244;69923;-68
2023/08/19 11:37:46;;;;;;;5.40;4.80;;;;;;;39.17;27.98;97595.48;110048;1244;59748;-68
2023/08/19 11:40:16;;;;;;;4.90;4.40;;;;;;;39.40;27.71;97592.05;110107;1244;59697;-69